Time;durP1;ratioP1;P1;durP2;ratioP2;P2;SDS_P1;SDS_P2;PMS_P1;PMS_P2;Temp;Humidity;BMP_temperature;BMP_pressure;BME280_temperature;BME280_humidity;BME280_pressure;Samples;Min_cycle;Max_cycle;Signal;HPM_P1;HPM_P2
2023/07/09 00:01:49;;;;;;;9.03;5.97;;;;;20.20;97357.00;;;;5028786;28;20208;-67
2023/07/09 00:04:39;;;;;;;9.63;5.90;;;;;20.00;97354.00;;;;5028112;28;20212;-67
2023/07/09 00:07:31;;;;;;;7.33;5.73;;;;;19.70;97353.00;;;;5028760;28;20240;-66
2023/07/09 00:10:21;;;;;;;8.00;6.60;;;;;20.10;97349.00;;;;5028039;28;20248;-67
2023/07/09 00:13:10;;;;;;;6.27;5.67;;;;;19.90;97351.00;;;;5029137;28;20209;-68
2023/07/09 00:16:01;;;;;;;12.23;6.43;;;;;19.70;97350.00;;;;5026691;28;20220;-67
2023/07/09 00:18:51;;;;;;;9.17;6.43;;;;;19.60;97351.00;;;;5027896;28;20198;-67
2023/07/09 00:21:40;;;;;;;11.27;6.00;;;;;19.60;97348.00;;;;5028355;28;20209;-68
2023/07/09 00:24:31;;;;;;;8.50;6.07;;;;;19.60;97354.00;;;;5026507;28;20218;-68
2023/07/09 00:27:21;;;;;;;9.53;5.70;;;;;19.60;97344.00;;;;5028368;28;20225;-66
2023/07/09 00:30:16;;;;;;;10.63;6.80;;;;;19.60;97361.00;;;;5023893;28;20228;-67
2023/07/09 00:33:05;;;;;;;8.17;6.63;;;;;19.20;97354.00;;;;5026732;28;20212;-68
2023/07/09 00:35:54;;;;;;;11.30;6.77;;;;;19.40;97353.00;;;;5032468;28;20581;-68
2023/07/09 00:38:47;;;;;;;9.40;6.77;;;;;19.70;97356.00;;;;5031592;28;20204;-68
2023/07/09 00:41:39;;;;;;;7.43;6.67;;;;;19.70;97359.00;;;;5031097;28;20694;-68
2023/07/09 00:44:30;;;;;;;11.13;7.30;;;;;19.60;97359.00;;;;5022219;28;20206;-67
2023/07/09 00:47:42;;;;;;;9.80;6.33;;;;;19.70;97368.00;;;;5031024;28;20221;-68
2023/07/09 00:50:37;;;;;;;8.87;7.00;;;;;19.70;97358.00;;;;5029195;28;20303;-68
2023/07/09 00:53:29;;;;;;;10.13;6.20;;;;;19.60;97359.00;;;;5030197;28;20224;-68
2023/07/09 00:56:22;;;;;;;11.07;6.87;;;;;19.40;97367.00;;;;5027681;28;20201;-68
2023/07/09 00:59:16;;;;;;;8.30;6.63;;;;;19.50;97361.00;;;;5031968;28;20221;-67
2023/07/09 01:02:05;;;;;;;7.00;6.20;;;;;19.50;97362.00;;;;5022157;28;20248;-68
2023/07/09 01:05:01;;;;;;;7.93;7.07;;;;;19.00;97371.00;;;;5031356;28;20205;-66
2023/07/09 01:07:50;;;;;;;7.97;6.50;;;;;19.20;97374.00;;;;5031466;28;20225;-67
2023/07/09 01:10:40;;;;;;;10.23;6.90;;;;;19.30;97369.00;;;;5030809;28;20236;-67
2023/07/09 01:13:29;;;;;;;8.60;6.00;;;;;19.00;97371.00;;;;5031059;28;20270;-67
2023/07/09 01:16:20;;;;;;;9.90;7.07;;;;;19.20;97373.00;;;;5025661;28;20213;-67
2023/07/09 01:19:13;;;;;;;12.50;7.53;;;;;19.20;97373.00;;;;5023407;28;20225;-67
2023/07/09 01:22:04;;;;;;;9.80;6.23;;;;;19.10;97376.00;;;;5029229;28;20209;-67
2023/07/09 01:24:57;;;;;;;13.10;7.17;;;;;19.10;97371.00;;;;5019069;28;20197;-67
2023/07/09 01:27:47;;;;;;;7.63;6.33;;;;;19.10;97371.00;;;;5023876;28;20231;-68
2023/07/09 01:30:38;;;;;;;8.70;6.73;;;;;18.90;97370.00;;;;5027946;28;20225;-67
2023/07/09 01:33:27;;;;;;;14.27;7.33;;;;;18.80;97370.00;;;;5031303;28;20595;-68
2023/07/09 01:36:23;;;;;;;11.23;6.97;;;;;19.00;97379.00;;;;5031278;28;20213;-68
2023/07/09 01:39:13;;;;;;;9.97;6.17;;;;;18.80;97373.00;;;;5030211;28;20218;-68
2023/07/09 01:42:02;;;;;;;8.73;7.10;;;;;18.90;97372.00;;;;5020125;28;20205;-68
2023/07/09 01:44:53;;;;;;;11.43;7.67;;;;;18.60;97367.00;;;;5028493;28;20198;-68
2023/07/09 01:47:42;;;;;;;10.50;6.30;;;;;18.40;97365.00;;;;5029098;28;20213;-68
2023/07/09 01:50:31;;;;;;;10.33;7.27;;;;;18.30;97366.00;;;;5029639;28;20343;-67
2023/07/09 01:53:23;;;;;;;12.07;6.27;;;;;18.40;97372.00;;;;5029785;28;20610;-67
2023/07/09 01:56:14;;;;;;;8.97;7.30;;;;;18.30;97373.00;;;;5023461;28;20221;-67
2023/07/09 01:59:03;;;;;;;9.60;7.50;;;;;18.40;97367.00;;;;5025417;28;20228;-68
2023/07/09 02:01:57;;;;;;;10.60;7.93;;;;;18.60;97370.00;;;;5030637;28;20193;-67
2023/07/09 02:04:47;;;;;;;11.90;7.67;;;;;18.70;97373.00;;;;5023883;28;20217;-67
2023/07/09 02:07:37;;;;;;;9.20;7.73;;;;;18.80;97382.00;;;;5030509;28;20335;-68
2023/07/09 02:10:26;;;;;;;10.80;7.37;;;;;18.70;97390.00;;;;5029285;28;20253;-67
2023/07/09 02:13:17;;;;;;;8.73;6.87;;;;;18.50;97395.00;;;;5029530;28;20205;-67
2023/07/09 02:16:06;;;;;;;8.00;6.97;;;;;18.70;97394.00;;;;5025628;28;20201;-67
2023/07/09 02:18:55;;;;;;;13.87;6.33;;;;;18.70;97384.00;;;;5019388;28;20193;-67
2023/07/09 02:21:44;;;;;;;7.63;6.33;;;;;18.60;97379.00;;;;5021071;28;20677;-68
2023/07/09 02:24:34;;;;;;;8.90;5.97;;;;;18.40;97390.00;;;;5023479;28;20208;-68
2023/07/09 02:27:23;;;;;;;8.13;6.90;;;;;18.30;97393.00;;;;5030424;28;20674;-67
2023/07/09 02:30:14;;;;;;;6.63;5.87;;;;;18.20;97398.00;;;;5029515;28;20229;-67
2023/07/09 02:33:04;;;;;;;9.43;7.00;;;;;18.00;97393.00;;;;5023963;28;20210;-68
2023/07/09 02:35:53;;;;;;;8.23;6.30;;;;;18.10;97390.00;;;;5029641;28;20260;-68
2023/07/09 02:38:42;;;;;;;8.10;6.80;;;;;18.00;97395.00;;;;5028556;28;20709;-68
2023/07/09 02:41:31;;;;;;;9.83;7.50;;;;;17.70;97387.00;;;;5029590;28;20600;-67
2023/07/09 02:44:21;;;;;;;10.77;6.90;;;;;17.20;97392.00;;;;5027702;28;20217;-66
2023/07/09 02:47:11;;;;;;;7.73;7.00;;;;;17.30;97387.00;;;;5030145;28;20209;-67
2023/07/09 02:50:00;;;;;;;7.33;6.43;;;;;17.50;97396.00;;;;5019522;28;20225;-68
2023/07/09 02:52:49;;;;;;;9.17;7.30;;;;;18.00;97391.00;;;;5016511;28;20204;-68
2023/07/09 02:55:38;;;;;;;9.50;7.27;;;;;17.90;97387.00;;;;5028122;28;20198;-67
2023/07/09 02:58:27;;;;;;;8.17;6.97;;;;;17.90;97403.00;;;;5019619;28;20213;-68
2023/07/09 03:01:16;;;;;;;10.90;6.80;;;;;17.90;97390.00;;;;5029302;28;20209;-69
2023/07/09 03:04:08;;;;;;;8.60;7.13;;;;;18.00;97389.00;;;;5021477;28;20585;-66
2023/07/09 03:06:57;;;;;;;8.80;7.33;;;;;18.10;97398.00;;;;5028572;28;20202;-68
2023/07/09 03:09:46;;;;;;;9.23;6.57;;;;;18.10;97386.00;;;;5022120;28;20221;-70
2023/07/09 03:12:35;;;;;;;19.23;8.87;;;;;18.00;97381.00;;;;5027621;28;20219;-67
2023/07/09 03:15:24;;;;;;;10.47;8.10;;;;;17.90;97391.00;;;;5025129;28;20201;-69
2023/07/09 03:18:13;;;;;;;9.70;7.20;;;;;18.00;97400.00;;;;5029263;28;20681;-69
2023/07/09 03:21:04;;;;;;;9.93;6.77;;;;;17.60;97399.00;;;;5012543;28;20221;-69
2023/07/09 03:23:53;;;;;;;8.33;7.53;;;;;17.10;97398.00;;;;5025229;28;20201;-68
2023/07/09 03:26:42;;;;;;;11.17;7.90;;;;;16.90;97392.00;;;;5029462;28;20205;-69
2023/07/09 03:29:31;;;;;;;9.13;7.10;;;;;17.30;97400.00;;;;5028478;28;20237;-69
2023/07/09 03:32:20;;;;;;;8.73;6.90;;;;;17.20;97401.00;;;;5027910;28;20216;-68
2023/07/09 03:35:10;;;;;;;9.27;7.20;;;;;17.30;97395.00;;;;5021449;28;20698;-69
2023/07/09 03:38:00;;;;;;;12.30;7.97;;;;;17.40;97398.00;;;;5018948;28;20213;-68
2023/07/09 03:40:51;;;;;;;14.60;8.67;;;;;17.40;97403.00;;;;5028260;28;20217;-68
2023/07/09 03:43:40;;;;;;;10.67;7.53;;;;;17.50;97406.00;;;;5025553;28;20208;-69
2023/07/09 03:46:29;;;;;;;13.60;8.77;;;;;17.50;97401.00;;;;5021902;28;20706;-68
2023/07/09 03:49:18;;;;;;;11.87;7.33;;;;;17.40;97401.00;;;;5029076;28;20233;-69
2023/07/09 03:52:08;;;;;;;15.73;8.10;;;;;17.50;97411.00;;;;5029110;28;20213;-69
2023/07/09 03:55:00;;;;;;;9.27;7.23;;;;;17.70;97410.00;;;;5028648;28;20198;-69
2023/07/09 03:57:49;;;;;;;15.00;8.53;;;;;17.50;97410.00;;;;5025412;28;20201;-69
2023/07/09 04:00:38;;;;;;;8.20;6.90;;;;;17.40;97407.00;;;;5027524;28;20221;-69
2023/07/09 04:03:27;;;;;;;11.43;7.20;;;;;17.60;97409.00;;;;5030219;28;20596;-68
2023/07/09 04:06:16;;;;;;;12.73;7.77;;;;;17.70;97407.00;;;;5033061;28;20205;-69
2023/07/09 04:09:05;;;;;;;10.17;7.57;;;;;17.90;97405.00;;;;5056712;23;20989;-69
2023/07/09 04:11:56;;;;;;;12.53;8.17;;;;;17.80;97399.00;;;;4966211;28;20221;-70
2023/07/09 04:14:45;;;;;;;11.17;7.70;;;;;17.40;97401.00;;;;4984572;28;20216;-70
2023/07/09 04:17:34;;;;;;;13.73;7.40;;;;;17.50;97402.00;;;;4973913;28;20211;-70
2023/07/09 04:20:23;;;;;;;11.53;7.30;;;;;17.90;97404.00;;;;4964464;28;20234;-70
2023/07/09 04:23:12;;;;;;;9.67;7.60;;;;;17.90;97405.00;;;;4950833;28;20214;-69
2023/07/09 04:26:02;;;;;;;9.47;7.40;;;;;17.80;97409.00;;;;4953735;28;20220;-70
2023/07/09 04:28:53;;;;;;;8.67;7.47;;;;;17.50;97403.00;;;;4955527;28;20359;-72
2023/07/09 04:31:42;;;;;;;9.27;8.37;;;;;18.00;97407.00;;;;4951874;28;20219;-71
2023/07/09 04:34:31;;;;;;;9.50;8.20;;;;;17.90;97411.00;;;;4956588;28;20211;-71
2023/07/09 04:37:20;;;;;;;7.60;6.80;;;;;18.10;97406.00;;;;4967722;28;20592;-71
2023/07/09 04:40:11;;;;;;;10.87;8.37;;;;;18.70;97404.00;;;;4959633;28;20215;-71
2023/07/09 04:43:00;;;;;;;8.87;7.53;;;;;18.70;97412.00;;;;4961021;28;20868;-71
2023/07/09 04:45:51;;;;;;;13.40;7.93;;;;;18.50;97418.00;;;;4956673;28;20568;-71
2023/07/09 04:48:40;;;;;;;12.07;7.67;;;;;18.40;97413.00;;;;4967839;28;20316;-72
2023/07/09 04:51:29;;;;;;;9.57;7.93;;;;;18.80;97415.00;;;;4962615;28;20686;-71
2023/07/09 04:54:18;;;;;;;11.40;7.67;;;;;18.90;97403.00;;;;4962890;28;20219;-71
2023/07/09 04:57:08;;;;;;;14.40;7.93;;;;;18.90;97414.00;;;;4965757;28;20203;-72
2023/07/09 04:59:57;;;;;;;9.17;8.10;;;;;18.90;97411.00;;;;4960439;28;20228;-72
2023/07/09 05:02:47;;;;;;;10.40;8.97;;;;;19.50;97406.00;;;;4963155;28;20204;-72
2023/07/09 05:05:36;;;;;;;10.60;7.43;;;;;20.00;97415.00;;;;4955809;28;20215;-71
2023/07/09 05:08:25;;;;;;;7.90;7.10;;;;;20.10;97410.00;;;;4963046;28;20737;-71
2023/07/09 05:11:15;;;;;;;9.67;7.70;;;;;20.10;97406.00;;;;4952109;28;20240;-71
2023/07/09 05:14:04;;;;;;;7.73;6.97;;;;;20.30;97408.00;;;;4954969;28;20207;-71
2023/07/09 05:16:53;;;;;;;8.20;6.77;;;;;20.30;97405.00;;;;4959757;28;20204;-72
2023/07/09 05:19:44;;;;;;;10.17;7.77;;;;;20.60;97408.00;;;;4952725;28;20871;-71
2023/07/09 05:22:33;;;;;;;12.10;7.57;;;;;21.00;97413.00;;;;4952284;28;20591;-71
2023/07/09 05:25:22;;;;;;;8.80;6.77;;;;;21.10;97412.00;;;;4953631;28;20712;-71
2023/07/09 05:28:11;;;;;;;7.83;6.87;;;;;21.20;97411.00;;;;4952794;28;20787;-71
2023/07/09 05:31:00;;;;;;;8.50;6.43;;;;;21.60;97412.00;;;;4952475;28;20238;-71
2023/07/09 05:33:49;;;;;;;8.20;6.50;;;;;21.40;97415.00;;;;4952445;28;20254;-73
2023/07/09 05:36:40;;;;;;;8.83;6.87;;;;;21.80;97406.00;;;;4951550;28;20200;-72
2023/07/09 05:39:29;;;;;;;10.00;5.87;;;;;22.00;97415.00;;;;4952075;28;20220;-71
2023/07/09 05:42:18;;;;;;;10.03;7.40;;;;;22.30;97406.00;;;;4949349;28;20196;-72
2023/07/09 05:45:08;;;;;;;8.83;6.70;;;;;22.50;97409.00;;;;4954143;28;20204;-72
2023/07/09 05:47:58;;;;;;;7.97;6.70;;;;;22.50;97412.00;;;;4951624;28;20575;-72
2023/07/09 05:50:49;;;;;;;6.87;6.13;;;;;22.60;97414.00;;;;4952638;28;20290;-72
2023/07/09 05:53:39;;;;;;;12.30;7.97;;;;;22.80;97416.00;;;;4946946;28;20215;-72
2023/07/09 05:56:28;;;;;;;9.13;5.67;;;;;22.90;97415.00;;;;4951105;28;20200;-71
2023/07/09 05:59:17;;;;;;;7.67;6.53;;;;;23.00;97417.00;;;;4950047;28;20263;-72
2023/07/09 06:02:11;;;;;;;10.80;6.93;;;;;23.00;97410.00;;;;4950918;28;20253;-72
2023/07/09 06:05:00;;;;;;;8.27;6.33;;;;;23.40;97409.00;;;;4946326;28;20215;-73
2023/07/09 06:07:49;;;;;;;9.27;7.17;;;;;23.30;97408.00;;;;4951164;28;20204;-72
2023/07/09 06:10:43;;;;;;;11.73;7.07;;;;;23.00;97405.00;;;;4951080;28;20712;-69
2023/07/09 06:13:32;;;;;;;10.33;6.17;;;;;23.40;97416.00;;;;4951963;28;20285;-72
2023/07/09 06:16:22;;;;;;;7.33;6.60;;;;;23.60;97414.00;;;;4949439;28;20211;-71
2023/07/09 06:19:11;;;;;;;8.10;6.57;;;;;23.40;97414.00;;;;4949885;28;21034;-71
2023/07/09 06:22:00;;;;;;;14.20;8.27;;;;;23.20;97419.00;;;;4947546;28;20211;-71
2023/07/09 06:24:49;;;;;;;9.30;6.63;;;;;23.40;97419.00;;;;4950283;28;20211;-72
2023/07/09 06:27:40;;;;;;;9.23;7.13;;;;;23.70;97413.00;;;;4949951;28;20207;-72
2023/07/09 06:30:29;;;;;;;8.80;6.60;;;;;23.50;97427.00;;;;4949973;28;20606;-72
2023/07/09 06:33:20;;;;;;;10.33;7.10;;;;;23.70;97426.00;;;;4950670;28;20566;-72
2023/07/09 06:36:10;;;;;;;8.80;7.13;;;;;24.10;97433.00;;;;4949099;28;20211;-71
2023/07/09 06:38:59;;;;;;;9.80;8.00;;;;;24.20;97427.00;;;;4951588;28;20211;-71
2023/07/09 06:41:49;;;;;;;7.33;6.63;;;;;24.20;97424.00;;;;4950751;28;20204;-71
2023/07/09 06:44:39;;;;;;;8.67;6.43;;;;;24.10;97429.00;;;;4949986;28;20201;-72
2023/07/09 06:47:28;;;;;;;11.07;7.27;;;;;24.30;97418.00;;;;4951709;28;20281;-73
2023/07/09 06:50:18;;;;;;;10.60;6.67;;;;;24.20;97422.00;;;;4946993;28;20304;-73
2023/07/09 06:53:07;;;;;;;7.67;5.83;;;;;24.70;97420.00;;;;4947328;28;20220;-72
2023/07/09 06:55:58;;;;;;;8.43;6.70;;;;;25.20;97417.00;;;;4950171;28;20204;-71
2023/07/09 06:58:47;;;;;;;9.33;7.87;;;;;25.10;97424.00;;;;4948942;28;20642;-72
2023/07/09 07:01:38;;;;;;;9.47;6.70;;;;;25.30;97415.00;;;;4948826;28;20678;-71
2023/07/09 07:04:27;;;;;;;8.27;7.37;;;;;25.20;97408.00;;;;4949249;28;20215;-71
2023/07/09 07:07:16;;;;;;;9.00;6.83;;;;;25.20;97413.00;;;;4949882;28;20515;-72
2023/07/09 07:10:06;;;;;;;8.90;6.77;;;;;26.10;97420.00;;;;4944512;28;20235;-72
2023/07/09 07:12:55;;;;;;;10.17;6.83;;;;;25.50;97425.00;;;;4951256;28;20204;-73
2023/07/09 07:15:50;;;;;;;8.53;6.80;;;;;25.90;97411.00;;;;4953088;28;20215;-73
2023/07/09 07:18:40;;;;;;;11.73;6.03;;;;;26.40;97415.00;;;;4950042;28;20204;-73
2023/07/09 07:21:29;;;;;;;11.67;6.73;;;;;26.70;97423.00;;;;4954675;28;20696;-73
2023/07/09 07:24:18;;;;;;;8.33;6.23;;;;;26.40;97411.00;;;;4950107;28;20204;-72
2023/07/09 07:27:08;;;;;;;8.70;6.53;;;;;26.70;97419.00;;;;4949573;28;20219;-72
2023/07/09 07:29:57;;;;;;;11.37;7.20;;;;;26.70;97409.00;;;;4950978;28;20228;-72
2023/07/09 07:32:48;;;;;;;8.47;6.83;;;;;26.70;97416.00;;;;4950912;28;20215;-71
2023/07/09 07:35:39;;;;;;;8.53;7.03;;;;;27.10;97408.00;;;;4959531;28;20213;-71
2023/07/09 07:38:35;;;;;;;10.40;6.63;;;;;27.30;97415.00;;;;4959230;28;20227;-71
2023/07/09 07:41:24;;;;;;;8.33;6.80;;;;;27.80;97412.00;;;;4954796;28;20228;-71
2023/07/09 07:44:13;;;;;;;9.53;6.63;;;;;28.10;97413.00;;;;4950470;28;20747;-72
2023/07/09 07:47:03;;;;;;;11.37;6.37;;;;;28.20;97405.00;;;;4950155;28;20213;-73
2023/07/09 07:49:52;;;;;;;7.60;6.17;;;;;28.40;97405.00;;;;4951275;28;20652;-72
2023/07/09 07:52:42;;;;;;;12.00;7.20;;;;;28.30;97401.00;;;;4951959;28;20263;-73
2023/07/09 07:55:31;;;;;;;15.13;6.30;;;;;28.10;97401.00;;;;4958529;28;20213;-72
2023/07/09 07:58:20;;;;;;;9.70;6.77;;;;;28.70;97397.00;;;;4948581;28;20218;-72
2023/07/09 08:01:09;;;;;;;8.17;6.33;;;;;28.60;97400.00;;;;4946657;28;20265;-72
2023/07/09 08:03:58;;;;;;;9.83;6.27;;;;;29.00;97400.00;;;;4947379;28;20207;-72
2023/07/09 08:06:47;;;;;;;7.77;6.90;;;;;29.20;97395.00;;;;4949930;28;20211;-73
2023/07/09 08:09:39;;;;;;;8.53;6.33;;;;;29.40;97388.00;;;;4947802;28;20622;-73
2023/07/09 08:12:28;;;;;;;7.77;5.87;;;;;29.40;97390.00;;;;4950386;28;20232;-69
2023/07/09 08:15:17;;;;;;;10.17;6.57;;;;;29.90;97387.00;;;;4953548;28;20208;-72
2023/07/09 08:18:06;;;;;;;10.47;7.80;;;;;30.10;97387.00;;;;4950091;28;20736;-71
2023/07/09 08:20:55;;;;;;;8.23;6.57;;;;;30.30;97387.00;;;;4950398;28;20284;-70
2023/07/09 08:23:45;;;;;;;8.73;6.13;;;;;30.40;97390.00;;;;4949848;28;20209;-73
2023/07/09 08:26:37;;;;;;;5.90;5.00;;;;;30.50;97389.00;;;;4950044;28;20205;-70
2023/07/09 08:29:26;;;;;;;9.73;7.13;;;;;30.80;97387.00;;;;4948865;28;20238;-73
2023/07/09 08:32:16;;;;;;;6.23;5.53;;;;;30.70;97377.00;;;;4955434;28;20238;-70
2023/07/09 08:35:05;;;;;;;7.73;6.13;;;;;31.00;97380.00;;;;4946066;28;20217;-70
2023/07/09 08:38:14;;;;;;;7.33;5.30;;;;;31.30;97374.00;;;;4948554;28;20705;-70
2023/07/09 08:41:08;;;;;;;7.07;5.43;;;;;31.40;97371.00;;;;4944235;28;20223;-70
2023/07/09 08:44:09;;;;;;;5.90;4.87;;;;;31.60;97383.00;;;;4948492;28;20700;-69
2023/07/09 08:47:04;;;;;;;7.73;6.13;;;;;31.90;97380.00;;;;4955244;28;20205;-71
2023/07/09 08:49:57;;;;;;;9.20;6.50;;;;;32.00;97375.00;;;;4947154;28;20231;-71
2023/07/09 08:52:49;;;;;;;7.10;6.10;;;;;32.00;97375.00;;;;4951767;28;20255;-71
2023/07/09 08:55:40;;;;;;;11.37;5.80;;;;;32.20;97376.00;;;;4952777;28;20221;-72
2023/07/09 08:58:32;;;;;;;9.00;5.93;;;;;32.50;97376.00;;;;4953675;28;20237;-71
2023/07/09 09:01:25;;;;;;;7.15;5.50;;;;;32.80;97376.00;;;;4952108;28;20600;-72
2023/07/09 09:04:19;;;;;;;7.70;5.35;;;;;32.80;97372.00;;;;4951332;28;20611;-72
2023/07/09 09:07:14;;;;;;;5.90;5.03;;;;;33.00;97375.00;;;;4951917;28;20199;-71
2023/07/09 09:10:05;;;;;;;4.95;4.32;;;;;33.10;97372.00;;;;4948317;28;20244;-71
2023/07/09 09:13:04;;;;;;;6.32;4.25;;;;;32.90;97366.00;;;;4951492;28;20623;-74
2023/07/09 09:15:53;;;;;;;5.03;4.13;;;;;33.10;97366.00;;;;4957674;28;20217;-73
2023/07/09 09:18:44;;;;;;;4.97;3.88;;;;;33.30;97370.00;;;;4951554;28;20586;-73
2023/07/09 09:21:36;;;;;;;6.00;4.45;;;;;33.50;97375.00;;;;4951964;28;20206;-73
2023/07/09 09:24:32;;;;;;;6.70;4.90;;;;;33.70;97363.00;;;;4951847;28;20230;-73
2023/07/09 09:27:21;;;;;;;4.60;4.07;;;;;33.50;97377.00;;;;4951081;28;20676;-72
2023/07/09 09:30:14;;;;;;;6.10;4.32;;;;;33.30;97368.00;;;;4949499;28;20232;-73
2023/07/09 09:33:09;;;;;;;4.80;3.80;;;;;33.50;97371.00;;;;4952184;28;20697;-73
2023/07/09 09:36:06;;;;;;;5.15;4.18;;;;;33.50;97368.00;;;;4947792;28;20208;-74
2023/07/09 09:38:55;;;;;;;3.88;3.50;;;;;34.00;97365.00;;;;4953218;28;20200;-73
2023/07/09 09:41:45;;;;;;;4.43;3.40;;;;;34.30;97368.00;;;;4951401;28;20203;-73
2023/07/09 09:44:34;;;;;;;6.00;4.47;;;;;34.50;97369.00;;;;4959612;28;20222;-73
2023/07/09 09:47:28;;;;;;;5.85;3.75;;;;;34.40;97372.00;;;;4951544;28;20233;-74
2023/07/09 09:50:17;;;;;;;4.53;3.67;;;;;34.20;97372.00;;;;4951681;28;20234;-74
2023/07/09 09:53:09;;;;;;;4.45;3.55;;;;;34.60;97370.00;;;;4952162;28;20718;-72
2023/07/09 09:55:59;;;;;;;4.00;3.58;;;;;34.70;97363.00;;;;4951690;28;20680;-73
2023/07/09 09:58:54;;;;;;;4.22;3.55;;;;;35.20;97366.00;;;;4943784;28;20211;-72
2023/07/09 10:01:43;;;;;;;3.88;3.22;;;;;35.10;97372.00;;;;4950148;28;20208;-73
2023/07/09 10:04:32;;;;;;;6.85;3.42;;;;;34.60;97368.00;;;;4952758;28;20251;-72
2023/07/09 10:07:24;;;;;;;4.10;3.50;;;;;34.90;97364.00;;;;4949703;28;20718;-71
2023/07/09 10:10:18;;;;;;;7.18;4.28;;;;;35.00;97376.00;;;;4980882;23;20722;-69
2023/07/09 10:13:15;;;;;;;5.28;3.92;;;;;34.90;97371.00;;;;4994067;28;20613;-69
2023/07/09 10:16:08;;;;;;;5.35;3.95;;;;;35.20;97374.00;;;;5002431;28;20209;-70
2023/07/09 10:19:03;;;;;;;5.35;3.75;;;;;35.60;97364.00;;;;5010089;28;20202;-70
2023/07/09 10:21:58;;;;;;;4.45;3.83;;;;;35.50;97367.00;;;;4982063;28;20202;-69
2023/07/09 10:24:55;;;;;;;4.05;3.55;;;;;35.80;97369.00;;;;4985579;28;20208;-69
2023/07/09 10:28:03;;;;;;;4.63;3.55;;;;;36.20;97370.00;;;;4989793;28;20709;-70
2023/07/09 10:31:00;;;;;;;4.38;3.17;;;;;36.00;97364.00;;;;4981350;28;20222;-71
2023/07/09 10:34:00;;;;;;;4.63;3.63;;;;;36.60;97362.00;;;;4981661;28;20290;-69
2023/07/09 10:37:02;;;;;;;3.58;3.28;;;;;37.00;97359.00;;;;4975375;28;20202;-70
2023/07/09 10:39:55;;;;;;;5.35;3.85;;;;;36.60;97357.00;;;;4986804;28;20228;-70
2023/07/09 10:42:51;;;;;;;4.53;3.92;;;33.60;54.90;36.60;97354.00;;;;4989243;28;20217;-69
2023/07/09 10:45:43;;;;;;;5.10;3.70;;;33.60;53.00;36.40;97346.00;;;;4989628;28;20194;-69
2023/07/09 10:48:38;;;;;;;4.35;3.63;;;33.60;52.10;36.50;97343.00;;;;4986335;28;20288;-70
2023/07/09 10:51:33;;;;;;;5.18;4.57;;;33.60;52.70;36.90;97345.00;;;;4987163;28;20230;-68
2023/07/09 10:54:33;;;;;;;4.25;3.70;;;33.60;54.50;37.20;97339.00;;;;4986961;28;20206;-71
2023/07/09 10:57:30;;;;;;;6.18;3.67;;;33.80;53.50;36.90;97338.00;;;;4980113;28;20210;-70
2023/07/09 11:00:26;;;;;;;3.97;3.58;;;33.90;54.60;37.20;97333.00;;;;4986018;28;20227;-70
2023/07/09 11:03:19;;;;;;;4.18;3.45;;;34.10;54.30;37.20;97335.00;;;;4987514;28;20206;-71
2023/07/09 11:06:19;;;;;;;4.90;4.28;;;34.10;52.70;37.20;97337.00;;;;4987204;28;20210;-70
2023/07/09 11:09:26;;;;;;;4.60;3.65;;;34.20;52.50;37.60;97341.00;;;;4985484;28;20206;-70
2023/07/09 11:12:19;;;;;;;7.97;4.03;;;34.30;53.20;38.00;97333.00;;;;5008635;28;20226;-71
2023/07/09 11:15:14;;;;;;;5.57;3.97;;;34.50;54.30;38.10;97333.00;;;;4996620;28;20737;-70
2023/07/09 11:18:07;;;;;;;6.57;3.75;;;34.70;53.60;38.20;97332.00;;;;4990557;28;20684;-71
2023/07/09 11:21:01;;;;;;;8.45;5.50;;;34.70;51.70;37.50;97327.00;;;;4990551;28;20228;-71
2023/07/09 11:23:54;;;;;;;3.85;3.38;;;34.90;51.80;38.00;97326.00;;;;5002020;28;20205;-70
2023/07/09 11:26:50;;;;;;;4.97;3.60;;;34.80;51.80;37.90;97327.00;;;;5007924;28;20206;-69
2023/07/09 11:29:48;;;;;;;7.75;4.15;;;34.80;52.00;38.20;97324.00;;;;5008034;28;20202;-70
2023/07/09 11:32:47;;;;;;;4.30;3.88;;;35.00;51.10;38.30;97328.00;;;;5008431;28;20232;-70
2023/07/09 11:35:49;;;;;;;5.70;4.00;;;35.20;49.20;39.00;97328.00;;;;5002688;28;20205;-69
2023/07/09 11:38:43;;;;;;;4.85;3.83;;;35.30;51.10;38.80;97323.00;;;;5008305;28;20690;-70
2023/07/09 11:41:43;;;;;;;4.32;3.70;;;35.50;50.70;39.50;97322.00;;;;5004221;28;20221;-70
2023/07/09 11:44:34;;;;;;;5.68;3.67;;;35.70;50.70;39.90;97316.00;;;;5009365;28;20213;-71
2023/07/09 11:47:30;;;;;;;5.55;4.22;;;36.00;51.10;39.60;97321.00;;;;4992800;28;20216;-70
2023/07/09 11:50:26;;;;;;;4.13;3.72;;;36.10;50.90;39.00;97315.00;;;;4991330;28;20225;-70
2023/07/09 11:53:29;;;;;;;5.65;4.30;;;36.10;49.90;39.00;97316.00;;;;4991829;28;20592;-70
2023/07/09 11:56:21;;;;;;;4.40;3.55;;;36.20;49.70;39.70;97310.00;;;;5006951;28;20197;-70
2023/07/09 11:59:12;;;;;;;7.53;4.97;;;36.30;50.50;39.90;97304.00;;;;5006758;28;20667;-70
2023/07/09 12:02:03;;;;;;;5.70;4.57;;;36.50;50.20;39.00;97293.00;;;;5009554;28;20205;-70
2023/07/09 12:04:53;;;;;;;4.50;3.88;;;36.30;48.90;39.80;97296.00;;;;5008823;28;20201;-70
2023/07/09 12:07:42;;;;;;;4.65;4.25;;;36.40;49.10;36.70;97292.00;;;;5008529;28;20466;-70
2023/07/09 12:10:35;;;;;;;4.40;3.53;;;35.90;49.80;38.10;97306.00;;;;5010681;28;20236;-69
2023/07/09 12:13:24;;;;;;;4.68;4.13;;;35.70;49.00;39.30;97294.00;;;;5009763;28;20210;-69
2023/07/09 12:16:23;;;;;;;4.32;3.83;;;35.80;50.80;40.30;97305.00;;;;5007546;28;20242;-69
2023/07/09 12:19:15;;;;;;;5.55;4.03;;;36.10;50.70;40.80;97298.00;;;;5007367;28;20193;-70
2023/07/09 12:22:11;;;;;;;5.47;3.60;;;36.60;49.60;40.00;97300.00;;;;5008771;28;20594;-70
2023/07/09 12:25:00;;;;;;;8.32;3.88;;;36.90;48.00;40.20;97294.00;;;;5010251;28;20581;-69
2023/07/09 12:27:51;;;;;;;3.58;3.28;;;37.00;47.30;40.50;97287.00;;;;5011601;28;20583;-69
2023/07/09 12:30:41;;;;;;;4.35;3.92;;;37.20;47.50;40.90;97285.00;;;;5010767;28;20268;-69
2023/07/09 12:33:31;;;;;;;5.55;3.75;;;37.30;48.00;40.40;97286.00;;;;5001523;28;20708;-69
2023/07/09 12:36:20;;;;;;;3.63;3.17;;;37.50;47.70;39.10;97288.00;;;;5006863;28;20198;-69
2023/07/09 12:39:14;;;;;;;5.25;3.67;;;37.40;48.50;39.20;97283.00;;;;5013253;28;20205;-69
2023/07/09 12:42:04;;;;;;;4.65;4.25;;;37.20;46.40;39.30;97278.00;;;;4995547;28;20202;-70
2023/07/09 12:44:54;;;;;;;5.45;3.80;;;36.90;46.60;40.20;97274.00;;;;4994593;28;20562;-69
2023/07/09 12:47:45;;;;;;;4.95;3.83;;;37.00;46.90;39.50;97271.00;;;;4993522;28;20199;-69
2023/07/09 12:50:36;;;;;;;7.53;5.03;;;36.80;47.10;41.50;97278.00;;;;4994216;28;20230;-70
2023/07/09 12:53:28;;;;;;;5.18;4.40;;;37.20;49.70;39.70;97348.00;;;;4994652;28;20194;-69
2023/07/09 12:56:18;;;;;;;4.93;4.40;;;37.10;52.60;38.10;97350.00;;;;5002835;28;20710;-69
2023/07/09 12:59:20;;;;;;;5.57;5.07;;;36.60;52.70;38.10;97350.00;;;;5005182;28;20579;-69
2023/07/09 13:02:18;;;;;;;9.10;6.05;;;36.10;54.00;37.10;97354.00;;;;5011526;28;20197;-69
2023/07/09 13:05:18;;;;;;;6.47;5.43;;;35.60;54.60;37.80;97343.00;;;;5005870;28;20201;-69
2023/07/09 13:08:15;;;;;;;7.60;5.07;;;35.20;55.70;37.50;97301.00;;;;5010500;28;20580;-69
2023/07/09 13:11:03;;;;;;;6.00;5.30;;;35.10;54.90;37.30;97348.00;;;;5010905;28;20809;-69
2023/07/09 13:13:57;;;;;;;5.60;4.63;;;35.00;55.40;37.30;97317.00;;;;5008733;28;20205;-68
2023/07/09 13:16:46;;;;;;;6.95;5.55;;;34.80;57.00;34.90;97343.00;;;;5007356;28;20202;-69
2023/07/09 13:19:36;;;;;;;5.40;4.90;;;34.30;55.20;35.10;97335.00;;;;5009195;28;20585;-69
2023/07/09 13:22:26;;;;;;;5.30;4.75;;;33.60;56.10;34.90;97286.00;;;;5008851;28;20195;-69
2023/07/09 13:25:14;;;;;;;7.65;5.10;;;33.30;56.70;37.80;97279.00;;;;5009955;28;20232;-69
2023/07/09 13:28:03;;;;;;;5.57;5.03;;;33.70;58.50;33.80;97341.00;;;;5003444;28;20197;-68
2023/07/09 13:30:54;;;;;;;6.22;4.88;;;33.30;56.20;34.10;97346.00;;;;5001649;28;20309;-69
2023/07/09 13:33:43;;;;;;;9.05;5.50;;;32.80;57.20;33.80;97351.00;;;;5005222;28;20210;-69
2023/07/09 13:36:33;;;;;;;6.22;5.18;;;32.20;57.70;33.30;97355.00;;;;5006820;28;20202;-69
2023/07/09 13:39:22;;;;;;;5.75;5.15;;;31.80;58.40;33.10;97344.00;;;;5009242;28;20723;-67
2023/07/09 13:42:14;;;;;;;5.60;5.07;;;31.50;59.20;33.10;97338.00;;;;4998235;28;20716;-68
2023/07/09 13:45:03;;;;;;;6.10;5.05;;;31.20;59.20;34.50;97288.00;;;;5005221;28;20701;-68
2023/07/09 13:47:52;;;;;;;5.25;4.68;;;31.40;59.70;33.60;97349.00;;;;5003791;28;20205;-68
2023/07/09 13:50:41;;;;;;;8.30;5.78;;;31.30;58.80;36.00;97292.00;;;;5001473;28;20240;-68